createdAt,value
2017-10-13T00:00:41.437Z,22.12
2017-10-13T00:01:21.924Z,22.21
2017-10-13T00:02:02.377Z,22.18
2017-10-13T00:02:42.837Z,22.15
2017-10-13T00:03:23.284Z,22.18
2017-10-13T00:04:03.732Z,22.15
2017-10-13T00:04:44.185Z,22.15
2017-10-13T00:05:24.635Z,22.14
2017-10-13T00:06:06.346Z,22.14
2017-10-13T00:06:46.795Z,22.16
2017-10-13T00:07:27.255Z,22.15
2017-10-13T00:08:07.724Z,22.21
2017-10-13T00:08:48.180Z,22.18
2017-10-13T00:09:28.630Z,22.21
2017-10-13T00:10:09.092Z,22.15
2017-10-13T00:10:49.546Z,22.16
2017-10-13T00:11:29.997Z,22.21
2017-10-13T00:12:10.448Z,22.18
2017-10-13T00:12:50.908Z,22.18
2017-10-13T00:13:31.361Z,22.18
2017-10-13T00:14:11.814Z,22.1
2017-10-13T00:14:52.269Z,22.18
2017-10-13T00:15:32.723Z,22.18
2017-10-13T00:16:13.174Z,22.15
2017-10-13T00:16:53.623Z,22.14
2017-10-13T00:17:34.077Z,22.15
2017-10-13T00:18:14.536Z,22.15
2017-10-13T00:18:55.010Z,22.19
2017-10-13T00:19:35.462Z,22.12
2017-10-13T00:20:15.925Z,22.18
2017-10-13T00:20:56.380Z,22.04
2017-10-13T00:21:36.828Z,22.16
2017-10-13T00:22:17.293Z,22.15
2017-10-13T00:22:57.747Z,22.18
2017-10-13T00:23:38.200Z,22.16
2017-10-13T00:24:18.655Z,22.16
2017-10-13T00:24:59.108Z,22.08
2017-10-13T00:25:39.557Z,22.15
2017-10-13T00:26:20.014Z,22.12
2017-10-13T00:27:00.472Z,22.16
2017-10-13T00:27:40.928Z,22.15
2017-10-13T00:28:21.384Z,22.15
2017-10-13T00:29:01.861Z,22.15
2017-10-13T00:29:42.358Z,22.04
2017-10-13T00:30:22.747Z,22.14
2017-10-13T00:31:03.206Z,22.19
2017-10-13T00:31:43.661Z,22.14
2017-10-13T00:32:24.109Z,22.18
2017-10-13T00:33:04.547Z,22.1
2017-10-13T00:33:45.010Z,22.07
2017-10-13T00:34:25.474Z,22.15
2017-10-13T00:35:05.935Z,22.14
2017-10-13T00:35:46.388Z,22.12
2017-10-13T00:36:26.841Z,22.15
2017-10-13T00:37:07.302Z,22.15
2017-10-13T00:37:47.786Z,22.15
2017-10-13T00:38:28.260Z,22.21
2017-10-13T00:39:08.692Z,22.21
2017-10-13T00:39:49.153Z,22.18
2017-10-13T00:40:29.605Z,22.21
2017-10-13T00:41:10.057Z,22.25
2017-10-13T00:41:50.516Z,22.18
2017-10-13T00:42:30.966Z,22.21
2017-10-13T00:43:11.419Z,22.14
2017-10-13T00:43:51.880Z,22.18
2017-10-13T00:44:32.376Z,22.22
2017-10-13T00:45:12.826Z,22.18
2017-10-13T00:45:53.271Z,22.25
2017-10-13T00:46:33.722Z,22.14
2017-10-13T00:47:14.182Z,22.15
2017-10-13T00:47:54.625Z,22.18
2017-10-13T00:48:35.068Z,22.12
2017-10-13T00:49:15.522Z,22.18
2017-10-13T00:49:55.980Z,22.16
2017-10-13T00:50:36.440Z,22.18
2017-10-13T00:51:16.882Z,22.21
2017-10-13T00:51:57.342Z,22.12
2017-10-13T00:52:37.800Z,22.18
2017-10-13T00:53:18.264Z,22.21
2017-10-13T00:53:58.713Z,22.15
2017-10-13T00:54:39.161Z,22.18
2017-10-13T00:55:19.626Z,22.12
2017-10-13T00:56:00.068Z,22.18
2017-10-13T00:56:40.516Z,22.19
2017-10-13T00:57:20.982Z,22.16
2017-10-13T00:58:01.442Z,22.19
2017-10-13T00:58:41.903Z,22.15
2017-10-13T00:59:22.366Z,22.16
2017-10-13T01:00:02.824Z,22.14
2017-10-13T01:00:43.264Z,22.21
2017-10-13T01:01:23.718Z,22.22
2017-10-13T01:02:04.165Z,22.18
2017-10-13T01:02:44.625Z,22.18
2017-10-13T01:03:25.077Z,22.12
2017-10-13T01:04:05.531Z,22.19
2017-10-13T01:04:45.996Z,22.14
2017-10-13T01:05:26.449Z,22.16
2017-10-13T01:06:06.899Z,22.14
2017-10-13T01:06:47.355Z,22.15
2017-10-13T01:07:27.804Z,22.16
2017-10-13T01:08:08.268Z,22.16
2017-10-13T01:08:48.718Z,22.19
2017-10-13T01:09:29.195Z,22.08
2017-10-13T01:10:09.620Z,22.08
2017-10-13T01:10:50.074Z,22.04
2017-10-13T01:11:30.532Z,22.16
2017-10-13T01:12:10.991Z,22.1
2017-10-13T01:12:51.449Z,22.1
2017-10-13T01:13:31.898Z,22.12
2017-10-13T01:14:12.354Z,22.01
2017-10-13T01:14:52.817Z,22.08
2017-10-13T01:15:33.278Z,22.15
2017-10-13T01:16:13.724Z,22.19
2017-10-13T01:16:54.186Z,22.08
2017-10-13T01:17:34.638Z,22.14
2017-10-13T01:18:15.103Z,22.16
2017-10-13T01:18:55.546Z,22.16
2017-10-13T01:19:35.998Z,22.14
2017-10-13T01:20:16.448Z,22.1
2017-10-13T01:20:56.902Z,22.18
2017-10-13T01:21:37.346Z,22.18
2017-10-13T01:22:17.800Z,22.16
2017-10-13T01:22:58.255Z,22.15
2017-10-13T01:23:38.710Z,22.12
2017-10-13T01:24:19.161Z,22.14
2017-10-13T01:24:59.617Z,22.14
2017-10-13T01:25:40.064Z,22.15
2017-10-13T01:26:20.513Z,22.19
2017-10-13T01:27:00.975Z,22.18
2017-10-13T01:27:41.431Z,22.12
2017-10-13T01:28:21.889Z,22.14
2017-10-13T01:29:02.347Z,22.16
2017-10-13T01:29:42.784Z,22.19
2017-10-13T01:30:23.240Z,22.21
2017-10-13T01:31:03.712Z,22.07
2017-10-13T01:31:44.163Z,22.03
2017-10-13T01:32:24.608Z,22.18
2017-10-13T01:33:05.039Z,22.14
2017-10-13T01:33:45.475Z,22.15
2017-10-13T01:34:25.925Z,22.16
2017-10-13T01:35:06.383Z,22.18
2017-10-13T01:35:46.844Z,22.21
2017-10-13T01:36:27.301Z,22.19
2017-10-13T01:37:07.754Z,22.15
2017-10-13T01:37:48.208Z,22.21
2017-10-13T01:38:28.661Z,22.18
2017-10-13T01:39:09.109Z,22.21
2017-10-13T01:39:49.570Z,22.18
2017-10-13T01:40:30.028Z,22.18
2017-10-13T01:41:10.481Z,22.22
2017-10-13T01:41:50.930Z,22.19
2017-10-13T01:42:31.380Z,22.16
2017-10-13T01:43:11.851Z,22.15
2017-10-13T01:43:52.301Z,22.14
2017-10-13T01:44:32.756Z,22.23
2017-10-13T01:45:13.211Z,22.19
2017-10-13T01:45:53.660Z,22.15
2017-10-13T01:46:34.120Z,22.19
2017-10-13T01:47:14.575Z,22.16
2017-10-13T01:47:55.033Z,22.15
2017-10-13T01:48:35.482Z,22.21
2017-10-13T01:49:15.933Z,22.16
2017-10-13T01:49:56.390Z,22.15
2017-10-13T01:50:36.852Z,22.19
2017-10-13T01:51:17.312Z,22.18
2017-10-13T01:51:57.765Z,22.18
2017-10-13T01:52:38.227Z,22.16
2017-10-13T01:53:18.693Z,22.15
2017-10-13T01:53:59.145Z,22.22
2017-10-13T01:54:39.595Z,22.18
2017-10-13T01:55:20.060Z,22.21
2017-10-13T01:56:00.508Z,22.21
2017-10-13T01:56:40.959Z,22.15
2017-10-13T01:57:21.405Z,22.18
2017-10-13T01:58:01.858Z,22.18
2017-10-13T01:58:42.309Z,22.14
2017-10-13T01:59:22.764Z,22.19
2017-10-13T02:00:03.212Z,22.16
2017-10-13T02:00:43.675Z,22.18
2017-10-13T02:01:24.125Z,22.15
2017-10-13T02:02:04.626Z,22.16
2017-10-13T02:02:45.020Z,22.1
2017-10-13T02:03:25.484Z,22.19
2017-10-13T02:04:05.925Z,22.16
2017-10-13T02:04:46.379Z,22.15
2017-10-13T02:05:26.836Z,22.15
2017-10-13T02:06:07.310Z,22.16
2017-10-13T02:06:47.752Z,22.16
2017-10-13T02:07:28.207Z,22.15
2017-10-13T02:08:08.660Z,22.18
2017-10-13T02:08:49.111Z,22.22
2017-10-13T02:09:29.568Z,22.18
2017-10-13T02:10:10.024Z,22.18
2017-10-13T02:10:50.472Z,22.19
2017-10-13T02:11:30.922Z,22.18
2017-10-13T02:12:11.399Z,22.15
2017-10-13T02:12:51.826Z,22.16
2017-10-13T02:14:49.542Z,22.16
2017-10-13T02:15:29.993Z,22.15
2017-10-13T02:16:10.447Z,22.15
2017-10-13T02:16:50.896Z,22.16
2017-10-13T02:17:31.344Z,22.18
2017-10-13T02:18:11.799Z,22.16
2017-10-13T02:18:52.248Z,22.18
2017-10-13T02:19:32.707Z,22.22
2017-10-13T02:20:13.161Z,22.19
2017-10-13T02:20:53.613Z,22.19
2017-10-13T02:21:34.065Z,22.15
2017-10-13T02:22:14.513Z,22.18
2017-10-13T02:22:54.970Z,22.18
2017-10-13T02:23:35.432Z,22.22
2017-10-13T02:24:15.882Z,22.18
2017-10-13T02:24:56.344Z,22.15
2017-10-13T02:25:36.802Z,22.19
2017-10-13T02:26:17.248Z,22.21
2017-10-13T02:26:57.721Z,22.16
2017-10-13T02:27:38.177Z,22.14
2017-10-13T02:28:18.647Z,22.16
2017-10-13T02:28:59.095Z,22.18
2017-10-13T02:29:39.544Z,22.23
2017-10-13T02:30:20.037Z,22.15
2017-10-13T02:31:00.509Z,22.16
2017-10-13T02:31:40.939Z,22.16
2017-10-13T02:32:21.403Z,22.16
2017-10-13T02:33:01.860Z,22.18
2017-10-13T02:33:42.317Z,22.12
2017-10-13T02:34:22.765Z,22.18
2017-10-13T02:35:03.221Z,22.22
2017-10-13T02:35:43.676Z,22.18
2017-10-13T02:36:24.144Z,22.18
2017-10-13T02:37:04.595Z,22.14
2017-10-13T02:37:45.052Z,22.18
2017-10-13T02:38:25.505Z,22.18
2017-10-13T02:39:05.962Z,22.18
2017-10-13T02:39:46.421Z,22.12
2017-10-13T02:40:26.888Z,22.16
2017-10-13T02:41:07.335Z,22.12
2017-10-13T02:41:47.785Z,22.03
2017-10-13T02:42:28.238Z,22.07
2017-10-13T02:43:08.693Z,22.14
2017-10-13T02:43:49.141Z,22.04
2017-10-13T02:44:29.586Z,22.06
2017-10-13T02:45:10.047Z,22.1
2017-10-13T02:45:50.497Z,22.16
2017-10-13T02:46:30.953Z,22.07
2017-10-13T02:47:11.393Z,22.06
2017-10-13T02:47:51.850Z,22.07
2017-10-13T02:48:32.312Z,22.15
2017-10-13T02:49:12.768Z,22.06
2017-10-13T02:49:53.226Z,22.06
2017-10-13T02:50:33.684Z,22.07
2017-10-13T02:51:14.137Z,22.12
2017-10-13T02:51:54.601Z,22.07
2017-10-13T02:52:35.042Z,22.07
2017-10-13T02:53:15.493Z,22.12
2017-10-13T02:53:55.949Z,22.14
2017-10-13T02:54:36.409Z,22.1
2017-10-13T02:55:16.871Z,22.12
2017-10-13T02:55:57.325Z,22.07
2017-10-13T02:56:37.777Z,22.1
2017-10-13T02:57:18.232Z,22.07
2017-10-13T02:57:58.683Z,22.1
2017-10-13T02:58:39.139Z,22.1
2017-10-13T02:59:19.592Z,22.08
2017-10-13T03:00:00.049Z,22.01
2017-10-13T03:00:40.511Z,22.1
2017-10-13T03:01:20.961Z,22.01
2017-10-13T03:02:01.413Z,22.08
2017-10-13T03:02:41.869Z,22.06
2017-10-13T03:03:22.314Z,22.06
2017-10-13T03:04:02.768Z,22.1
2017-10-13T03:04:43.228Z,22.06
2017-10-13T03:05:23.683Z,22.07
2017-10-13T03:06:04.141Z,22.07
2017-10-13T03:06:44.597Z,22.08
2017-10-13T03:07:25.045Z,22.04
2017-10-13T03:08:05.492Z,22.1
2017-10-13T03:08:45.945Z,22.1
2017-10-13T03:09:26.395Z,22.08
2017-10-13T03:10:06.853Z,22.04
2017-10-13T03:10:47.302Z,22.06
2017-10-13T03:11:27.756Z,22.07
2017-10-13T03:12:08.201Z,22.01
2017-10-13T03:12:48.653Z,22.07
2017-10-13T03:13:29.106Z,22.04
2017-10-13T03:14:09.563Z,22.07
2017-10-13T03:14:50.022Z,22.08
2017-10-13T03:15:30.472Z,22.12
2017-10-13T03:16:10.928Z,22.1
2017-10-13T03:16:51.382Z,22.07
2017-10-13T03:17:31.841Z,22.06
2017-10-13T03:18:12.287Z,22.06
2017-10-13T03:18:52.742Z,22.04
2017-10-13T03:19:33.222Z,22.03
2017-10-13T03:20:13.663Z,22.03
2017-10-13T03:20:54.113Z,22.04
2017-10-13T03:21:34.571Z,22.1
2017-10-13T03:22:15.021Z,22.01
2017-10-13T03:22:55.476Z,22.15
2017-10-13T03:23:35.925Z,22.04
2017-10-13T03:24:16.378Z,22.1
2017-10-13T03:24:56.825Z,22.07
2017-10-13T03:25:37.279Z,22.08
2017-10-13T03:26:17.729Z,22.03
2017-10-13T03:26:58.187Z,22.06
2017-10-13T03:27:38.637Z,22.1
2017-10-13T03:28:19.091Z,22.12
2017-10-13T03:28:59.539Z,22.06
2017-10-13T03:29:39.989Z,22.06
2017-10-13T03:30:20.447Z,22.01
2017-10-13T03:31:00.902Z,22.08
2017-10-13T03:31:41.360Z,22.12
2017-10-13T03:32:21.806Z,22.12
2017-10-13T03:33:02.262Z,22.12
2017-10-13T03:33:42.724Z,22.1
2017-10-13T03:34:23.175Z,22.08
2017-10-13T03:35:03.620Z,22.03
2017-10-13T03:35:44.070Z,22.1
2017-10-13T03:36:24.528Z,22.06
2017-10-13T03:37:04.980Z,22.08
2017-10-13T03:37:45.432Z,22.1
2017-10-13T03:38:25.894Z,22.1
2017-10-13T03:39:06.342Z,22.01
2017-10-13T03:39:46.804Z,22.06
2017-10-13T03:40:27.250Z,22.08
2017-10-13T03:41:07.697Z,22.07
2017-10-13T03:41:48.148Z,22.08
2017-10-13T03:42:28.597Z,22.04
2017-10-13T03:43:09.044Z,22.1
2017-10-13T03:43:49.494Z,22.04
2017-10-13T03:44:29.958Z,22.06
2017-10-13T03:45:10.408Z,22.08
2017-10-13T03:45:50.863Z,22.07
2017-10-13T03:46:31.318Z,22.06
2017-10-13T03:47:11.781Z,22.04
2017-10-13T03:47:52.232Z,22.1
2017-10-13T03:48:32.691Z,22.03
2017-10-13T03:49:13.146Z,22.01
2017-10-13T03:49:53.606Z,22.08
2017-10-13T03:50:34.063Z,22.07
2017-10-13T03:51:14.504Z,22.1
2017-10-13T03:51:54.955Z,22.04
2017-10-13T03:52:35.408Z,22.06
2017-10-13T03:53:15.865Z,22.08
2017-10-13T03:53:56.319Z,22.06
2017-10-13T03:54:36.769Z,22.06
2017-10-13T03:55:17.222Z,22.07
2017-10-13T03:55:57.671Z,22.1
2017-10-13T03:56:38.119Z,22.04
2017-10-13T03:57:18.581Z,22.07
2017-10-13T03:57:59.028Z,22.06
2017-10-13T03:58:39.480Z,22.06
2017-10-13T03:59:19.937Z,22.03
2017-10-13T04:00:00.392Z,22.1
2017-10-13T04:00:40.850Z,22.06
2017-10-13T04:01:21.310Z,22.08
2017-10-13T04:02:01.767Z,22.04
2017-10-13T04:02:42.210Z,22.08
2017-10-13T04:03:22.664Z,22.07
2017-10-13T04:04:03.116Z,22.08
2017-10-13T04:04:43.583Z,22.07
2017-10-13T04:05:24.032Z,22.07
2017-10-13T04:06:04.488Z,22.01
2017-10-13T04:06:44.937Z,22.06
2017-10-13T04:07:25.387Z,22.06
2017-10-13T04:08:05.833Z,22.07
2017-10-13T04:08:46.291Z,22
2017-10-13T04:09:26.753Z,22.04
2017-10-13T04:10:07.204Z,22.12
2017-10-13T04:10:47.658Z,22.15
2017-10-13T04:11:28.144Z,22.19
2017-10-13T04:12:08.598Z,22.15
2017-10-13T04:12:49.065Z,22.15
2017-10-13T04:13:29.522Z,22.12
2017-10-13T04:14:09.976Z,22.12
2017-10-13T04:14:50.429Z,22.26
2017-10-13T04:15:30.890Z,22.19
2017-10-13T04:16:11.334Z,22.16
2017-10-13T04:16:51.849Z,22.23
2017-10-13T04:17:32.307Z,22.19
2017-10-13T04:18:12.759Z,22.28
2017-10-13T04:18:53.218Z,22.28
2017-10-13T04:19:33.672Z,22.3
2017-10-13T04:20:14.117Z,22.21
2017-10-13T04:20:54.579Z,22.26
2017-10-13T04:21:35.038Z,22.3
2017-10-13T04:22:15.494Z,22.3
2017-10-13T04:22:55.945Z,22.25
2017-10-13T04:23:36.711Z,22.26
2017-10-13T04:24:17.186Z,22.31
2017-10-13T04:24:57.641Z,22.3
2017-10-13T04:25:38.094Z,22.23
2017-10-13T04:26:18.549Z,22.25
2017-10-13T04:26:59.002Z,22.4
2017-10-13T04:27:39.452Z,22.26
2017-10-13T04:28:19.904Z,22.36
2017-10-13T04:29:00.366Z,22.37
2017-10-13T04:29:40.817Z,22.4
2017-10-13T04:30:21.273Z,22.31
2017-10-13T04:31:01.734Z,22.41
2017-10-13T04:31:42.184Z,22.38
2017-10-13T04:32:22.638Z,22.37
2017-10-13T04:33:03.096Z,22.36
2017-10-13T04:33:43.547Z,22.43
2017-10-13T04:34:23.997Z,22.37
2017-10-13T04:35:04.452Z,22.41
2017-10-13T04:35:44.909Z,22.47
2017-10-13T04:36:25.360Z,22.36
2017-10-13T04:37:05.818Z,22.43
2017-10-13T04:37:46.270Z,22.44
2017-10-13T04:38:26.717Z,22.46
2017-10-13T04:39:07.169Z,22.4
2017-10-13T04:39:47.626Z,22.4
2017-10-13T04:40:28.088Z,22.4
2017-10-13T04:41:08.537Z,22.4
2017-10-13T04:41:48.986Z,22.44
2017-10-13T04:42:29.419Z,22.46
2017-10-13T04:43:09.865Z,22.43
2017-10-13T04:43:50.314Z,22.41
2017-10-13T04:44:30.769Z,22.53
2017-10-13T04:45:11.215Z,22.46
2017-10-13T04:45:51.666Z,22.41
2017-10-13T04:46:32.124Z,22.38
2017-10-13T04:47:12.583Z,22.44
2017-10-13T04:47:53.026Z,22.4
2017-10-13T04:48:33.472Z,22.41
2017-10-13T04:49:13.923Z,22.43
2017-10-13T04:49:54.384Z,22.43
2017-10-13T04:50:34.839Z,22.44
2017-10-13T04:51:15.289Z,22.37
2017-10-13T04:51:55.742Z,22.36
2017-10-13T04:52:36.192Z,22.43
2017-10-13T04:53:16.649Z,22.37
2017-10-13T04:53:57.098Z,22.43
2017-10-13T04:54:37.557Z,22.46
2017-10-13T04:55:18.010Z,22.41
2017-10-13T04:55:58.464Z,22.47
2017-10-13T04:56:38.917Z,22.43
2017-10-13T04:57:19.372Z,22.41
2017-10-13T04:57:59.829Z,22.46
2017-10-13T04:58:40.289Z,22.4
2017-10-13T04:59:20.745Z,22.4
2017-10-13T05:00:01.198Z,22.43
2017-10-13T05:00:41.642Z,22.4
2017-10-13T05:01:22.067Z,22.44
2017-10-13T05:02:02.499Z,22.38
2017-10-13T05:02:42.939Z,22.47
2017-10-13T05:03:23.388Z,22.41
2017-10-13T05:04:03.834Z,22.41
2017-10-13T05:04:44.293Z,22.38
2017-10-13T05:05:24.749Z,22.4
2017-10-13T05:06:05.212Z,22.38
2017-10-13T05:06:45.666Z,22.36
2017-10-13T05:07:26.127Z,22.37
2017-10-13T05:08:06.585Z,22.37
2017-10-13T05:08:47.039Z,22.38
2017-10-13T05:09:27.496Z,22.34
2017-10-13T05:10:07.950Z,22.36
2017-10-13T05:10:48.404Z,22.31
2017-10-13T05:11:28.862Z,22.34
2017-10-13T05:12:09.320Z,22.37
2017-10-13T05:12:49.775Z,22.34
2017-10-13T05:13:30.228Z,22.34
2017-10-13T05:14:10.689Z,22.36
2017-10-13T05:14:51.143Z,22.34
2017-10-13T05:15:31.592Z,22.33
2017-10-13T05:16:12.051Z,22.37
2017-10-13T05:16:52.509Z,22.3
2017-10-13T05:17:32.966Z,22.31
2017-10-13T05:18:13.422Z,22.37
2017-10-13T05:18:53.888Z,22.34
2017-10-13T05:19:34.340Z,22.38
2017-10-13T05:20:14.793Z,22.34
2017-10-13T05:20:55.255Z,22.36
2017-10-13T05:21:35.702Z,22.33
2017-10-13T05:22:16.155Z,22.3
2017-10-13T05:22:56.607Z,22.37
2017-10-13T05:23:37.068Z,22.28
2017-10-13T05:24:17.517Z,22.37
2017-10-13T05:24:57.970Z,22.31
2017-10-13T05:25:38.444Z,22.36
2017-10-13T05:26:18.900Z,22.34
2017-10-13T05:26:59.360Z,22.31
2017-10-13T05:27:39.814Z,22.31
2017-10-13T05:28:20.272Z,22.41
2017-10-13T05:29:00.737Z,22.37
2017-10-13T05:29:41.196Z,22.21
2017-10-13T05:30:21.655Z,22.28
2017-10-13T05:31:02.107Z,22.34
2017-10-13T05:31:42.556Z,22.3
2017-10-13T05:32:23.018Z,22.26
2017-10-13T05:33:03.471Z,22.26
2017-10-13T05:33:43.926Z,22.34
2017-10-13T05:34:24.396Z,22.28
2017-10-13T05:35:04.851Z,22.31
2017-10-13T05:35:45.304Z,22.28
2017-10-13T05:36:25.758Z,22.28
2017-10-13T05:37:06.220Z,22.3
2017-10-13T05:37:46.682Z,22.22
2017-10-13T05:38:27.141Z,22.28
2017-10-13T05:39:07.600Z,22.26
2017-10-13T05:39:48.047Z,22.25
2017-10-13T05:40:28.505Z,22.31
2017-10-13T05:41:08.973Z,22.26
2017-10-13T05:41:49.427Z,22.23
2017-10-13T05:42:29.869Z,22.25
2017-10-13T05:43:10.343Z,22.31
2017-10-13T05:43:50.787Z,22.26
2017-10-13T05:44:31.244Z,22.23
2017-10-13T05:45:11.705Z,22.28
2017-10-13T05:45:52.162Z,22.28
2017-10-13T05:46:32.618Z,22.31
2017-10-13T05:47:13.074Z,22.26
2017-10-13T05:47:53.530Z,22.31
2017-10-13T05:48:33.994Z,22.22
2017-10-13T05:49:14.453Z,22.28
2017-10-13T05:49:54.912Z,22.28
2017-10-13T05:50:35.367Z,22.31
2017-10-13T05:51:15.845Z,22.26
2017-10-13T05:51:57.456Z,22.26
2017-10-13T05:52:37.920Z,22.26
2017-10-13T05:53:18.368Z,22.26
2017-10-13T05:53:58.830Z,22.25
2017-10-13T05:54:39.282Z,22.28
2017-10-13T05:55:19.737Z,22.33
2017-10-13T05:56:00.199Z,22.25
2017-10-13T05:56:40.650Z,22.28
2017-10-13T05:57:21.109Z,22.3
2017-10-13T05:58:01.573Z,22.25
2017-10-13T05:58:42.023Z,22.23
2017-10-13T05:59:22.486Z,22.31
2017-10-13T06:00:02.941Z,22.34
2017-10-13T06:00:43.408Z,22.3
2017-10-13T06:01:23.866Z,22.26
2017-10-13T06:02:04.306Z,22.28
2017-10-13T06:02:44.765Z,22.33
2017-10-13T06:03:25.227Z,22.28
2017-10-13T06:04:05.672Z,22.31
2017-10-13T06:04:46.128Z,22.36
2017-10-13T06:05:26.590Z,22.31
2017-10-13T06:06:07.044Z,22.33
2017-10-13T06:06:47.503Z,22.3
2017-10-13T06:07:28.003Z,22.26
2017-10-13T06:08:08.456Z,22.26
2017-10-13T06:08:48.917Z,22.23
2017-10-13T06:09:29.371Z,22.31
2017-10-13T06:10:09.831Z,22.25
2017-10-13T06:10:50.300Z,22.21
2017-10-13T06:11:30.761Z,22.25
2017-10-13T06:12:11.225Z,22.28
2017-10-13T06:12:51.678Z,22.26
2017-10-13T06:13:32.135Z,22.26
2017-10-13T06:14:12.582Z,22.23
2017-10-13T06:14:53.042Z,22.3
2017-10-13T06:15:33.500Z,22.33
2017-10-13T06:16:13.944Z,22.31
2017-10-13T06:16:54.398Z,22.33
2017-10-13T06:17:34.848Z,22.34
2017-10-13T06:18:15.302Z,22.37
2017-10-13T06:18:55.767Z,22.33
2017-10-13T06:19:36.230Z,22.34
2017-10-13T06:20:16.674Z,22.34
2017-10-13T06:20:57.120Z,22.37
2017-10-13T06:21:37.573Z,22.37
2017-10-13T06:22:18.036Z,22.33
2017-10-13T06:22:58.493Z,22.4
2017-10-13T06:23:38.950Z,22.38
2017-10-13T06:24:19.404Z,22.34
2017-10-13T06:24:59.853Z,22.37
2017-10-13T06:25:40.310Z,22.38
2017-10-13T06:26:20.767Z,22.38
2017-10-13T06:27:01.226Z,22.4
2017-10-13T06:27:41.681Z,22.44
2017-10-13T06:28:22.136Z,22.36
2017-10-13T06:29:02.607Z,22.41
2017-10-13T06:29:43.051Z,22.43
2017-10-13T06:30:23.505Z,22.4
2017-10-13T06:31:03.959Z,22.44
2017-10-13T06:31:44.432Z,22.38
2017-10-13T06:32:24.876Z,22.46
2017-10-13T06:33:05.331Z,22.41
2017-10-13T06:33:45.806Z,22.43
2017-10-13T06:34:26.239Z,22.38
2017-10-13T06:35:06.698Z,22.51
2017-10-13T06:35:47.151Z,22.43
2017-10-13T06:36:27.601Z,22.53
2017-10-13T06:37:08.059Z,22.46
2017-10-13T06:37:48.511Z,22.53
2017-10-13T06:38:29.075Z,22.52
2017-10-13T06:39:09.525Z,22.58
2017-10-13T06:39:49.982Z,22.56
2017-10-13T06:40:30.434Z,22.56
2017-10-13T06:41:10.895Z,22.52
2017-10-13T06:41:51.358Z,22.43
2017-10-13T06:42:31.814Z,22.51
2017-10-13T06:43:12.293Z,22.52
2017-10-13T06:43:52.758Z,22.65
2017-10-13T06:44:33.223Z,22.51
2017-10-13T06:45:13.669Z,22.65
2017-10-13T06:45:54.123Z,22.58
2017-10-13T06:46:34.572Z,22.55
2017-10-13T06:47:15.022Z,22.65
2017-10-13T06:47:55.488Z,22.65
2017-10-13T06:48:35.942Z,22.58
2017-10-13T06:49:16.391Z,22.58
2017-10-13T06:49:56.850Z,22.55
2017-10-13T06:50:37.308Z,22.53
2017-10-13T06:51:17.804Z,22.63
2017-10-13T06:51:58.268Z,22.61
2017-10-13T06:52:38.727Z,22.63
2017-10-13T06:53:19.198Z,22.68
2017-10-13T06:53:59.644Z,22.62
2017-10-13T06:54:40.094Z,22.73
2017-10-13T06:55:20.572Z,22.73
2017-10-13T06:56:01.006Z,22.68
2017-10-13T06:56:41.467Z,22.71
2017-10-13T06:57:21.926Z,22.68
2017-10-13T06:58:02.387Z,22.71
2017-10-13T06:58:42.835Z,22.67
2017-10-13T06:59:23.288Z,22.62
2017-10-13T07:00:03.743Z,22.59
2017-10-13T07:00:44.190Z,22.65
2017-10-13T07:01:24.640Z,22.55
2017-10-13T07:02:05.096Z,22.51
2017-10-13T07:02:46.584Z,22.55
2017-10-13T07:03:27.051Z,22.65
2017-10-13T07:04:07.493Z,22.56
2017-10-13T07:04:47.943Z,22.65
2017-10-13T07:05:28.393Z,22.59
2017-10-13T07:06:08.846Z,22.7
2017-10-13T07:06:51.586Z,22.74
2017-10-13T07:07:32.165Z,22.7
2017-10-13T07:08:12.754Z,22.68
2017-10-13T07:08:53.218Z,22.81
2017-10-13T07:09:34.445Z,22.83
2017-10-13T07:10:14.899Z,22.83
2017-10-13T07:10:55.355Z,22.86
2017-10-13T07:11:35.817Z,22.92
2017-10-13T07:12:16.337Z,23.04
2017-10-13T07:12:56.895Z,22.99
2017-10-13T07:13:37.317Z,23.02
2017-10-13T07:14:17.777Z,23.11
2017-10-13T07:14:58.234Z,23.17
2017-10-13T07:15:38.683Z,23.28
2017-10-13T07:16:19.744Z,23.33
2017-10-13T07:17:00.250Z,23.32
2017-10-13T07:17:40.709Z,23.33
2017-10-13T07:18:21.169Z,23.26
2017-10-13T07:19:01.644Z,23.44
2017-10-13T07:19:42.100Z,23.44
2017-10-13T07:20:22.547Z,23.48
2017-10-13T07:21:03.005Z,23.52
2017-10-13T07:21:43.457Z,23.54
2017-10-13T07:22:23.914Z,23.59
2017-10-13T07:23:04.380Z,23.63
2017-10-13T07:23:44.845Z,23.66
2017-10-13T07:24:25.308Z,23.74
2017-10-13T07:25:05.763Z,23.73
2017-10-13T07:25:46.218Z,23.74
2017-10-13T07:26:26.667Z,23.74
2017-10-13T07:27:07.121Z,23.81
2017-10-13T07:27:47.579Z,23.85
2017-10-13T07:28:28.039Z,23.94
2017-10-13T07:29:08.510Z,23.92
2017-10-13T07:29:48.961Z,23.92
2017-10-13T07:30:29.418Z,23.92
2017-10-13T07:31:09.878Z,23.99
2017-10-13T07:31:50.335Z,24.11
2017-10-13T07:32:30.794Z,24.1
2017-10-13T07:33:11.267Z,24.14
2017-10-13T07:33:51.704Z,24.16
2017-10-13T07:34:32.161Z,24.16
2017-10-13T07:35:12.614Z,24.16
2017-10-13T07:35:53.069Z,24.21
2017-10-13T07:36:33.539Z,24.29
2017-10-13T07:37:14.001Z,24.36
2017-10-13T07:37:54.460Z,24.36
2017-10-13T07:38:34.936Z,24.38
2017-10-13T07:39:15.386Z,24.44
2017-10-13T07:39:55.830Z,24.51
2017-10-13T07:40:36.287Z,24.44
2017-10-13T07:42:28.917Z,24.59
2017-10-13T07:43:09.366Z,24.68
2017-10-13T07:43:49.795Z,24.68
2017-10-13T07:44:30.262Z,24.71
2017-10-13T07:45:10.712Z,24.79
2017-10-13T07:45:51.158Z,24.78
2017-10-13T07:46:31.616Z,24.75
2017-10-13T07:47:12.064Z,24.82
2017-10-13T07:47:52.644Z,24.88
2017-10-13T07:48:33.103Z,24.86
2017-10-13T07:49:13.547Z,24.92
2017-10-13T07:49:53.997Z,24.93
2017-10-13T07:50:34.775Z,24.94
2017-10-13T07:51:15.227Z,24.96
2017-10-13T07:51:55.710Z,24.97
2017-10-13T07:52:36.301Z,25.01
2017-10-13T07:53:16.906Z,25.01
2017-10-13T07:53:57.375Z,25.06
2017-10-13T07:54:37.914Z,25.01
2017-10-13T07:55:18.357Z,25
2017-10-13T07:55:58.903Z,24.99
2017-10-13T07:56:39.411Z,24.99
2017-10-13T07:57:19.842Z,24.99
2017-10-13T07:58:00.391Z,24.94
2017-10-13T08:00:14.322Z,24.97
2017-10-13T08:00:54.778Z,24.99
2017-10-13T08:01:35.233Z,24.93
2017-10-13T08:02:15.678Z,25
2017-10-13T08:02:56.137Z,24.86
2017-10-13T08:03:37.204Z,24.84
2017-10-13T08:04:18.285Z,24.92
2017-10-13T08:04:58.740Z,24.84
2017-10-13T08:05:39.201Z,24.85
2017-10-13T08:06:19.649Z,24.89
2017-10-13T08:07:00.138Z,24.86
2017-10-13T08:07:41.855Z,24.93
2017-10-13T08:08:21.553Z,24.86
2017-10-13T08:09:02.018Z,25.01
2017-10-13T08:11:14.925Z,24.97
2017-10-13T08:11:55.372Z,24.96
2017-10-13T08:12:35.892Z,24.96
2017-10-13T08:13:16.368Z,24.86
2017-10-13T08:13:56.879Z,24.93
2017-10-13T08:14:37.379Z,24.85
2017-10-13T08:15:17.747Z,24.75
2017-10-13T08:15:58.234Z,24.78
2017-10-13T08:16:38.656Z,24.79
2017-10-13T08:17:19.130Z,24.63
2017-10-13T08:17:59.601Z,24.68
2017-10-13T08:18:40.055Z,24.65
2017-10-13T08:19:20.505Z,24.59
2017-10-13T08:20:00.952Z,24.61
2017-10-13T08:20:41.404Z,24.48
2017-10-13T08:21:21.859Z,24.47
2017-10-13T08:22:02.298Z,24.46
2017-10-13T08:22:42.749Z,24.43
2017-10-13T08:23:23.207Z,24.32
2017-10-13T08:24:03.647Z,24.4
2017-10-13T08:24:44.105Z,24.37
2017-10-13T08:25:24.549Z,24.4
2017-10-13T08:26:05.004Z,24.31
2017-10-13T08:26:45.457Z,24.5
2017-10-13T08:27:25.910Z,24.44
2017-10-13T08:28:06.364Z,24.48
2017-10-13T08:29:53.896Z,24.59
2017-10-13T08:30:34.347Z,24.62
2017-10-13T08:31:14.799Z,24.66
2017-10-13T08:31:55.271Z,24.66
2017-10-13T08:32:35.716Z,24.62
2017-10-13T08:33:16.176Z,24.66
2017-10-13T08:33:56.632Z,24.66
2017-10-13T08:34:37.084Z,24.63
2017-10-13T08:35:17.520Z,24.69
2017-10-13T08:35:58.109Z,24.77
2017-10-13T08:36:38.473Z,24.74
2017-10-13T08:37:18.923Z,24.78
2017-10-13T08:37:59.380Z,24.86
2017-10-13T08:38:39.830Z,24.82
2017-10-13T08:39:20.299Z,24.74
2017-10-13T08:41:13.064Z,24.75
2017-10-13T08:41:53.576Z,24.71
2017-10-13T08:42:33.984Z,24.75
2017-10-13T08:43:14.449Z,24.66
2017-10-13T08:43:54.891Z,24.68
2017-10-13T08:44:35.343Z,24.65
2017-10-13T08:45:15.798Z,24.61
2017-10-13T08:45:56.224Z,24.61
2017-10-13T08:46:36.659Z,24.62
2017-10-13T08:47:17.110Z,24.58
2017-10-13T08:47:57.566Z,24.58
2017-10-13T08:48:38.021Z,24.59
2017-10-13T08:49:18.474Z,24.51
2017-10-13T08:49:58.937Z,24.55
2017-10-13T08:50:39.425Z,24.46